Date,TemperatureHighF,TemperatureAvgF,TemperatureLowF,DewpointHighF,DewpointAvgF,DewpointLowF,HumidityHigh,HumidityAvg,HumidityLow,PressureMaxIn,PressureMinIn,WindSpeedMaxMPH,WindSpeedAvgMPH,GustSpeedMaxMPH,PrecipitationSumIn
2013-1-1,43,41,39,36,33,29,84,74,60,30.01,29.88,14,4,14,0.00
2013-1-2,39,34,30,30,22,18,71,62,49,30.23,29.97,19,6,19,0.00
2013-1-3,38,33,27,30,22,18,74,65,59,30.25,30.15,18,6,18,0.00
2013-1-4,42,38,34,32,26,24,76,63,53,30.20,30.08,27,11,27,0.00
2013-1-5,40,37,34,32,26,24,75,65,57,30.38,30.13,18,6,18,0.00
2013-1-6,49,42,37,37,34,30,89,76,47,30.21,30.01,11,3,11,0.00
2013-1-7,45,41,31,35,32,28,91,70,58,30.43,30.11,18,6,18,0.00
2013-1-8,52,42,31,38,35,28,92,78,58,30.43,30.35,15,4,15,0.00
2013-1-9,52,43,35,46,38,33,94,85,75,30.38,30.21,10,2,10,0.00
2013-1-10,49,45,41,37,32,30,75,61,50,30.58,30.40,14,4,14,0.00
2013-1-11,47,42,36,45,38,30,98,85,69,30.49,30.08,9,1,9,0.06
2013-1-12,51,44,42,48,43,42,99,96,86,30.16,30.08,10,2,10,0.00
2013-1-13,55,47,41,55,47,41,100,99,97,30.14,29.97,14,2,14,0.02
2013-1-14,58,52,42,58,48,37,100,89,68,30.27,29.95,24,7,24,0.03
2013-1-15,42,39,36,41,38,35,98,97,93,30.33,30.13,16,4,16,0.17
2013-1-16,42,39,35,42,38,34,98,96,94,30.14,29.82,18,5,18,0.40
2013-1-17,44,42,39,42,36,32,98,81,64,30.12,29.96,14,4,14,0.00
2013-1-18,41,35,30,34,23,14,79,62,41,30.51,30.03,33,10,33,0.00
2013-1-19,50,42,32,37,33,24,78,71,54,30.43,29.97,29,13,29,0.00
2013-1-20,55,46,39,39,32,20,74,60,35,30.08,29.81,25,12,25,0.00
2013-1-21,46,36,29,37,24,17,89,62,48,30.12,29.78,30,7,30,0.00
2013-1-22,33,24,20,21,8,1,62,51,38,30.28,29.90,35,21,43,0.00
2013-1-23,26,22,18,9,6,2,64,50,40,30.35,30.16,29,11,29,0.00
2013-1-24,27,22,17,14,11,5,88,64,40,30.49,30.10,30,11,30,0.00
2013-1-25,24,22,20,11,8,5,60,54,50,30.50,30.40,16,6,16,0.00
2013-1-26,32,29,25,22,20,18,76,70,61,30.43,30.18,16,7,16,0.00
2013-1-27,39,28,23,24,20,16,88,72,51,30.59,30.42,9,2,9,0.00
2013-1-28,46,36,30,42,33,24,94,88,80,30.51,30.03,20,6,20,0.18
2013-1-29,59,50,43,52,45,40,93,86,71,30.13,29.98,12,3,12,0.00
2013-1-30,68,60,51,60,56,48,93,86,74,29.99,29.28,32,10,32,0.05
2013-1-31,63,45,34,59,33,17,99,64,42,29.92,29.11,41,20,41,0.21